sensor_id;sensor_type;location;lat;lon;timestamp;P1;durP1;ratioP1;P2;durP2;ratioP2
67090;SDS011;54007;55.818;49.058;2023-03-01T00:00:47;10.03;;;3.87;;
67090;SDS011;54007;55.818;49.058;2023-03-01T00:03:13;9.80;;;4.00;;
67090;SDS011;54007;55.818;49.058;2023-03-01T00:05:46;9.85;;;4.08;;
67090;SDS011;54007;55.818;49.058;2023-03-01T00:08:12;9.53;;;4.00;;
67090;SDS011;54007;55.818;49.058;2023-03-01T00:10:39;11.50;;;4.35;;
67090;SDS011;54007;55.818;49.058;2023-03-01T00:13:05;10.38;;;4.30;;
67090;SDS011;54007;55.818;49.058;2023-03-01T00:15:31;11.90;;;4.50;;
67090;SDS011;54007;55.818;49.058;2023-03-01T00:17:57;11.50;;;4.30;;
67090;SDS011;54007;55.818;49.058;2023-03-01T00:20:23;9.80;;;4.33;;
67090;SDS011;54007;55.818;49.058;2023-03-01T00:22:49;11.05;;;4.10;;
67090;SDS011;54007;55.818;49.058;2023-03-01T00:25:20;10.53;;;4.17;;
67090;SDS011;54007;55.818;49.058;2023-03-01T00:27:47;10.65;;;4.28;;
67090;SDS011;54007;55.818;49.058;2023-03-01T00:30:13;10.05;;;4.20;;
67090;SDS011;54007;55.818;49.058;2023-03-01T00:32:39;9.70;;;4.17;;
67090;SDS011;54007;55.818;49.058;2023-03-01T00:35:05;10.47;;;4.10;;
67090;SDS011;54007;55.818;49.058;2023-03-01T00:37:31;14.28;;;4.22;;
67090;SDS011;54007;55.818;49.058;2023-03-01T00:39:57;9.48;;;4.30;;
67090;SDS011;54007;55.818;49.058;2023-03-01T00:42:23;9.95;;;4.05;;
67090;SDS011;54007;55.818;49.058;2023-03-01T00:44:49;8.83;;;4.03;;
67090;SDS011;54007;55.818;49.058;2023-03-01T00:47:15;8.48;;;3.83;;
67090;SDS011;54007;55.818;49.058;2023-03-01T00:49:41;9.45;;;4.10;;
67090;SDS011;54007;55.818;49.058;2023-03-01T00:52:07;11.83;;;4.53;;
67090;SDS011;54007;55.818;49.058;2023-03-01T00:54:33;9.90;;;4.08;;
67090;SDS011;54007;55.818;49.058;2023-03-01T00:56:59;7.20;;;3.22;;
67090;SDS011;54007;55.818;49.058;2023-03-01T00:59:25;8.28;;;3.47;;
67090;SDS011;54007;55.818;49.058;2023-03-01T01:01:50;9.30;;;3.67;;
67090;SDS011;54007;55.818;49.058;2023-03-01T01:04:16;7.80;;;3.00;;
67090;SDS011;54007;55.818;49.058;2023-03-01T01:06:44;8.78;;;3.50;;
67090;SDS011;54007;55.818;49.058;2023-03-01T01:09:09;7.97;;;3.20;;
67090;SDS011;54007;55.818;49.058;2023-03-01T01:11:35;11.12;;;3.30;;
67090;SDS011;54007;55.818;49.058;2023-03-01T01:14:01;7.37;;;2.95;;
67090;SDS011;54007;55.818;49.058;2023-03-01T01:16:27;9.90;;;3.17;;
67090;SDS011;54007;55.818;49.058;2023-03-01T01:18:53;7.47;;;3.20;;
67090;SDS011;54007;55.818;49.058;2023-03-01T01:21:19;8.08;;;3.20;;
67090;SDS011;54007;55.818;49.058;2023-03-01T01:23:45;7.62;;;2.95;;
67090;SDS011;54007;55.818;49.058;2023-03-01T01:26:19;8.43;;;3.10;;
67090;SDS011;54007;55.818;49.058;2023-03-01T01:28:44;7.53;;;3.37;;
67090;SDS011;54007;55.818;49.058;2023-03-01T01:31:10;8.48;;;3.30;;
67090;SDS011;54007;55.818;49.058;2023-03-01T01:33:36;7.92;;;3.22;;
67090;SDS011;54007;55.818;49.058;2023-03-01T01:36:02;8.68;;;3.70;;
67090;SDS011;54007;55.818;49.058;2023-03-01T01:38:28;9.23;;;3.42;;
67090;SDS011;54007;55.818;49.058;2023-03-01T01:40:54;8.45;;;3.10;;
67090;SDS011;54007;55.818;49.058;2023-03-01T01:45:46;8.80;;;3.20;;
67090;SDS011;54007;55.818;49.058;2023-03-01T01:48:13;9.50;;;3.50;;
67090;SDS011;54007;55.818;49.058;2023-03-01T01:50:38;9.33;;;3.37;;
67090;SDS011;54007;55.818;49.058;2023-03-01T01:53:05;7.55;;;3.17;;
67090;SDS011;54007;55.818;49.058;2023-03-01T01:55:30;7.47;;;3.05;;
67090;SDS011;54007;55.818;49.058;2023-03-01T01:57:56;9.40;;;3.40;;
67090;SDS011;54007;55.818;49.058;2023-03-01T02:00:22;9.17;;;3.50;;
67090;SDS011;54007;55.818;49.058;2023-03-01T02:02:55;9.00;;;3.15;;
67090;SDS011;54007;55.818;49.058;2023-03-01T02:07:48;8.37;;;3.67;;
67090;SDS011;54007;55.818;49.058;2023-03-01T02:10:15;9.93;;;4.47;;
67090;SDS011;54007;55.818;49.058;2023-03-01T02:12:40;8.85;;;4.35;;
67090;SDS011;54007;55.818;49.058;2023-03-01T02:15:06;10.48;;;3.40;;
67090;SDS011;54007;55.818;49.058;2023-03-01T02:17:32;7.60;;;3.07;;
67090;SDS011;54007;55.818;49.058;2023-03-01T02:22:43;7.40;;;3.10;;
67090;SDS011;54007;55.818;49.058;2023-03-01T02:25:23;7.22;;;2.80;;
67090;SDS011;54007;55.818;49.058;2023-03-01T02:27:56;6.45;;;2.92;;
67090;SDS011;54007;55.818;49.058;2023-03-01T02:30:20;7.15;;;3.05;;
67090;SDS011;54007;55.818;49.058;2023-03-01T02:32:45;7.25;;;2.92;;
67090;SDS011;54007;55.818;49.058;2023-03-01T02:35:12;8.60;;;3.47;;
67090;SDS011;54007;55.818;49.058;2023-03-01T02:37:37;8.90;;;3.10;;
67090;SDS011;54007;55.818;49.058;2023-03-01T02:40:04;15.80;;;3.83;;
67090;SDS011;54007;55.818;49.058;2023-03-01T02:42:33;7.20;;;3.42;;
67090;SDS011;54007;55.818;49.058;2023-03-01T02:44:55;10.60;;;4.63;;
67090;SDS011;54007;55.818;49.058;2023-03-01T02:47:21;10.68;;;4.17;;
67090;SDS011;54007;55.818;49.058;2023-03-01T02:49:47;7.12;;;3.08;;
67090;SDS011;54007;55.818;49.058;2023-03-01T02:52:20;7.30;;;3.30;;
67090;SDS011;54007;55.818;49.058;2023-03-01T02:54:59;9.65;;;3.00;;
67090;SDS011;54007;55.818;49.058;2023-03-01T02:57:23;9.88;;;3.35;;
67090;SDS011;54007;55.818;49.058;2023-03-01T02:59:49;7.17;;;2.80;;
67090;SDS011;54007;55.818;49.058;2023-03-01T03:02:19;10.67;;;3.40;;
67090;SDS011;54007;55.818;49.058;2023-03-01T03:04:44;9.38;;;3.02;;
67090;SDS011;54007;55.818;49.058;2023-03-01T03:07:10;10.72;;;3.30;;
67090;SDS011;54007;55.818;49.058;2023-03-01T03:09:36;10.05;;;3.65;;
67090;SDS011;54007;55.818;49.058;2023-03-01T03:12:02;8.67;;;2.90;;
67090;SDS011;54007;55.818;49.058;2023-03-01T03:14:28;7.92;;;3.45;;
67090;SDS011;54007;55.818;49.058;2023-03-01T03:16:54;7.12;;;3.22;;
67090;SDS011;54007;55.818;49.058;2023-03-01T03:19:24;8.43;;;3.40;;
67090;SDS011;54007;55.818;49.058;2023-03-01T03:21:50;8.78;;;3.42;;
67090;SDS011;54007;55.818;49.058;2023-03-01T03:24:16;11.38;;;3.80;;
67090;SDS011;54007;55.818;49.058;2023-03-01T03:26:42;9.50;;;3.47;;
67090;SDS011;54007;55.818;49.058;2023-03-01T03:29:08;8.33;;;3.22;;
67090;SDS011;54007;55.818;49.058;2023-03-01T03:31:34;9.23;;;3.40;;
67090;SDS011;54007;55.818;49.058;2023-03-01T03:34:00;9.65;;;3.20;;
67090;SDS011;54007;55.818;49.058;2023-03-01T03:36:26;8.68;;;3.00;;
67090;SDS011;54007;55.818;49.058;2023-03-01T03:38:52;8.78;;;3.40;;
67090;SDS011;54007;55.818;49.058;2023-03-01T03:41:18;9.45;;;3.17;;
67090;SDS011;54007;55.818;49.058;2023-03-01T03:43:44;8.67;;;3.27;;
67090;SDS011;54007;55.818;49.058;2023-03-01T03:46:11;9.90;;;3.50;;
67090;SDS011;54007;55.818;49.058;2023-03-01T03:48:38;9.88;;;3.58;;
67090;SDS011;54007;55.818;49.058;2023-03-01T03:51:02;11.55;;;3.85;;
67090;SDS011;54007;55.818;49.058;2023-03-01T03:53:28;10.20;;;3.30;;
67090;SDS011;54007;55.818;49.058;2023-03-01T03:55:55;8.63;;;3.12;;
67090;SDS011;54007;55.818;49.058;2023-03-01T03:58:21;10.18;;;3.65;;
67090;SDS011;54007;55.818;49.058;2023-03-01T04:00:47;11.33;;;3.98;;
67090;SDS011;54007;55.818;49.058;2023-03-01T04:03:13;12.30;;;3.63;;
67090;SDS011;54007;55.818;49.058;2023-03-01T04:05:39;9.55;;;3.08;;
67090;SDS011;54007;55.818;49.058;2023-03-01T04:08:05;9.53;;;3.60;;
67090;SDS011;54007;55.818;49.058;2023-03-01T04:10:37;8.60;;;3.35;;
67090;SDS011;54007;55.818;49.058;2023-03-01T04:13:03;10.28;;;3.12;;
67090;SDS011;54007;55.818;49.058;2023-03-01T04:15:28;10.70;;;3.87;;
67090;SDS011;54007;55.818;49.058;2023-03-01T04:17:54;9.50;;;3.45;;
67090;SDS011;54007;55.818;49.058;2023-03-01T04:20:21;10.33;;;3.63;;
67090;SDS011;54007;55.818;49.058;2023-03-01T04:22:59;8.75;;;3.30;;
67090;SDS011;54007;55.818;49.058;2023-03-01T04:25:24;8.85;;;2.80;;
67090;SDS011;54007;55.818;49.058;2023-03-01T04:27:50;8.77;;;3.70;;
67090;SDS011;54007;55.818;49.058;2023-03-01T04:30:16;10.60;;;3.37;;
67090;SDS011;54007;55.818;49.058;2023-03-01T04:32:42;10.45;;;3.10;;
67090;SDS011;54007;55.818;49.058;2023-03-01T04:35:08;10.68;;;3.52;;
67090;SDS011;54007;55.818;49.058;2023-03-01T04:37:40;9.63;;;3.07;;
67090;SDS011;54007;55.818;49.058;2023-03-01T04:40:07;10.40;;;2.90;;
67090;SDS011;54007;55.818;49.058;2023-03-01T04:42:33;8.13;;;3.05;;
67090;SDS011;54007;55.818;49.058;2023-03-01T04:44:59;9.48;;;3.05;;
67090;SDS011;54007;55.818;49.058;2023-03-01T04:47:25;9.00;;;3.05;;
67090;SDS011;54007;55.818;49.058;2023-03-01T04:49:51;9.28;;;2.70;;
67090;SDS011;54007;55.818;49.058;2023-03-01T04:52:17;7.22;;;2.47;;
67090;SDS011;54007;55.818;49.058;2023-03-01T04:54:43;11.13;;;4.97;;
67090;SDS011;54007;55.818;49.058;2023-03-01T04:57:09;8.80;;;3.00;;
67090;SDS011;54007;55.818;49.058;2023-03-01T04:59:35;7.00;;;2.80;;
67090;SDS011;54007;55.818;49.058;2023-03-01T05:02:01;5.95;;;2.55;;
67090;SDS011;54007;55.818;49.058;2023-03-01T05:04:27;5.25;;;2.25;;
67090;SDS011;54007;55.818;49.058;2023-03-01T05:06:53;6.85;;;2.52;;
67090;SDS011;54007;55.818;49.058;2023-03-01T05:09:19;7.95;;;2.25;;
67090;SDS011;54007;55.818;49.058;2023-03-01T05:11:45;8.00;;;2.50;;
67090;SDS011;54007;55.818;49.058;2023-03-01T05:14:11;7.35;;;2.60;;
67090;SDS011;54007;55.818;49.058;2023-03-01T05:16:37;6.42;;;2.83;;
67090;SDS011;54007;55.818;49.058;2023-03-01T05:19:03;6.47;;;2.08;;
67090;SDS011;54007;55.818;49.058;2023-03-01T05:21:28;6.67;;;2.50;;
67090;SDS011;54007;55.818;49.058;2023-03-01T05:23:54;5.97;;;2.25;;
67090;SDS011;54007;55.818;49.058;2023-03-01T05:26:20;5.55;;;2.20;;
67090;SDS011;54007;55.818;49.058;2023-03-01T05:28:49;4.93;;;2.20;;
67090;SDS011;54007;55.818;49.058;2023-03-01T05:31:15;8.15;;;2.30;;
67090;SDS011;54007;55.818;49.058;2023-03-01T05:33:41;6.15;;;2.10;;
67090;SDS011;54007;55.818;49.058;2023-03-01T05:36:08;6.15;;;2.17;;
67090;SDS011;54007;55.818;49.058;2023-03-01T05:38:33;5.87;;;1.87;;
67090;SDS011;54007;55.818;49.058;2023-03-01T05:40:59;7.97;;;2.55;;
67090;SDS011;54007;55.818;49.058;2023-03-01T05:43:30;6.70;;;2.33;;
67090;SDS011;54007;55.818;49.058;2023-03-01T05:45:57;7.73;;;2.13;;
67090;SDS011;54007;55.818;49.058;2023-03-01T05:48:21;7.53;;;2.10;;
67090;SDS011;54007;55.818;49.058;2023-03-01T05:50:47;5.83;;;2.15;;
67090;SDS011;54007;55.818;49.058;2023-03-01T05:53:14;5.87;;;2.50;;
67090;SDS011;54007;55.818;49.058;2023-03-01T05:55:46;7.50;;;2.40;;
67090;SDS011;54007;55.818;49.058;2023-03-01T05:58:13;5.37;;;1.82;;
67090;SDS011;54007;55.818;49.058;2023-03-01T06:00:38;7.12;;;2.25;;
67090;SDS011;54007;55.818;49.058;2023-03-01T06:03:04;5.03;;;2.10;;
67090;SDS011;54007;55.818;49.058;2023-03-01T06:05:30;7.87;;;2.20;;
67090;SDS011;54007;55.818;49.058;2023-03-01T06:07:58;6.60;;;2.10;;
67090;SDS011;54007;55.818;49.058;2023-03-01T06:10:22;5.12;;;2.02;;
67090;SDS011;54007;55.818;49.058;2023-03-01T06:12:48;5.50;;;1.93;;
67090;SDS011;54007;55.818;49.058;2023-03-01T06:15:14;5.12;;;2.00;;
67090;SDS011;54007;55.818;49.058;2023-03-01T06:17:40;4.42;;;2.00;;
67090;SDS011;54007;55.818;49.058;2023-03-01T06:20:51;7.35;;;1.98;;
67090;SDS011;54007;55.818;49.058;2023-03-01T06:22:34;6.90;;;2.03;;
67090;SDS011;54007;55.818;49.058;2023-03-01T06:25:00;6.00;;;2.00;;
67090;SDS011;54007;55.818;49.058;2023-03-01T06:27:26;4.60;;;1.80;;
67090;SDS011;54007;55.818;49.058;2023-03-01T06:29:52;4.92;;;2.00;;
67090;SDS011;54007;55.818;49.058;2023-03-01T06:32:18;5.33;;;1.92;;
67090;SDS011;54007;55.818;49.058;2023-03-01T06:34:44;5.70;;;1.90;;
67090;SDS011;54007;55.818;49.058;2023-03-01T06:37:10;6.70;;;2.00;;
67090;SDS011;54007;55.818;49.058;2023-03-01T06:39:36;5.50;;;1.80;;
67090;SDS011;54007;55.818;49.058;2023-03-01T06:42:02;6.78;;;1.70;;
67090;SDS011;54007;55.818;49.058;2023-03-01T06:44:28;7.83;;;1.72;;
67090;SDS011;54007;55.818;49.058;2023-03-01T06:46:53;6.15;;;2.15;;
67090;SDS011;54007;55.818;49.058;2023-03-01T06:49:19;6.95;;;2.17;;
67090;SDS011;54007;55.818;49.058;2023-03-01T06:51:45;6.57;;;2.00;;
67090;SDS011;54007;55.818;49.058;2023-03-01T06:54:11;7.60;;;1.70;;
67090;SDS011;54007;55.818;49.058;2023-03-01T06:56:37;7.15;;;2.00;;
67090;SDS011;54007;55.818;49.058;2023-03-01T06:59:03;4.80;;;1.70;;
67090;SDS011;54007;55.818;49.058;2023-03-01T07:01:32;4.42;;;1.57;;
67090;SDS011;54007;55.818;49.058;2023-03-01T07:03:58;5.03;;;1.70;;
67090;SDS011;54007;55.818;49.058;2023-03-01T07:06:24;5.50;;;1.63;;
67090;SDS011;54007;55.818;49.058;2023-03-01T07:08:50;5.72;;;2.02;;
67090;SDS011;54007;55.818;49.058;2023-03-01T07:11:16;7.92;;;1.90;;
67090;SDS011;54007;55.818;49.058;2023-03-01T07:13:42;5.60;;;2.10;;
67090;SDS011;54007;55.818;49.058;2023-03-01T07:16:08;5.45;;;2.15;;
67090;SDS011;54007;55.818;49.058;2023-03-01T07:18:34;5.35;;;2.20;;
67090;SDS011;54007;55.818;49.058;2023-03-01T07:21:04;7.80;;;2.10;;
67090;SDS011;54007;55.818;49.058;2023-03-01T07:23:29;8.30;;;2.02;;
67090;SDS011;54007;55.818;49.058;2023-03-01T07:25:55;8.50;;;2.10;;
67090;SDS011;54007;55.818;49.058;2023-03-01T07:28:22;5.33;;;2.00;;
67090;SDS011;54007;55.818;49.058;2023-03-01T07:30:47;7.40;;;2.20;;
67090;SDS011;54007;55.818;49.058;2023-03-01T07:33:12;5.05;;;2.00;;
67090;SDS011;54007;55.818;49.058;2023-03-01T07:35:38;6.80;;;2.10;;
67090;SDS011;54007;55.818;49.058;2023-03-01T07:38:04;4.78;;;1.82;;
67090;SDS011;54007;55.818;49.058;2023-03-01T07:40:30;7.47;;;1.77;;
67090;SDS011;54007;55.818;49.058;2023-03-01T07:42:56;6.77;;;2.10;;
67090;SDS011;54007;55.818;49.058;2023-03-01T07:45:22;6.35;;;2.12;;
67090;SDS011;54007;55.818;49.058;2023-03-01T07:47:48;6.85;;;1.90;;
67090;SDS011;54007;55.818;49.058;2023-03-01T07:50:13;6.97;;;1.40;;
67090;SDS011;54007;55.818;49.058;2023-03-01T07:52:39;4.85;;;1.62;;
67090;SDS011;54007;55.818;49.058;2023-03-01T07:55:06;5.22;;;1.50;;
67090;SDS011;54007;55.818;49.058;2023-03-01T07:57:32;9.50;;;2.07;;
67090;SDS011;54007;55.818;49.058;2023-03-01T07:59:59;6.00;;;1.57;;
67090;SDS011;54007;55.818;49.058;2023-03-01T08:02:25;8.83;;;1.82;;
67090;SDS011;54007;55.818;49.058;2023-03-01T08:04:51;6.33;;;1.72;;
67090;SDS011;54007;55.818;49.058;2023-03-01T08:07:17;5.27;;;1.97;;
67090;SDS011;54007;55.818;49.058;2023-03-01T08:09:43;5.58;;;1.57;;
67090;SDS011;54007;55.818;49.058;2023-03-01T08:12:09;5.72;;;2.00;;
67090;SDS011;54007;55.818;49.058;2023-03-01T08:14:35;7.65;;;1.50;;
67090;SDS011;54007;55.818;49.058;2023-03-01T08:17:01;3.70;;;1.40;;
67090;SDS011;54007;55.818;49.058;2023-03-01T08:19:31;4.65;;;1.77;;
67090;SDS011;54007;55.818;49.058;2023-03-01T08:21:57;6.03;;;1.40;;
67090;SDS011;54007;55.818;49.058;2023-03-01T08:24:23;3.72;;;1.40;;
67090;SDS011;54007;55.818;49.058;2023-03-01T08:26:49;5.47;;;1.33;;
67090;SDS011;54007;55.818;49.058;2023-03-01T08:29:15;6.55;;;1.60;;
67090;SDS011;54007;55.818;49.058;2023-03-01T08:31:41;7.42;;;1.57;;
67090;SDS011;54007;55.818;49.058;2023-03-01T08:34:08;5.27;;;1.27;;
67090;SDS011;54007;55.818;49.058;2023-03-01T08:36:35;7.10;;;1.77;;
67090;SDS011;54007;55.818;49.058;2023-03-01T08:38:59;8.25;;;1.80;;
67090;SDS011;54007;55.818;49.058;2023-03-01T08:41:25;5.58;;;1.40;;
67090;SDS011;54007;55.818;49.058;2023-03-01T08:43:51;5.62;;;1.62;;
67090;SDS011;54007;55.818;49.058;2023-03-01T08:46:17;7.17;;;1.63;;
67090;SDS011;54007;55.818;49.058;2023-03-01T08:48:43;7.83;;;1.62;;
67090;SDS011;54007;55.818;49.058;2023-03-01T08:51:09;4.33;;;1.37;;
67090;SDS011;54007;55.818;49.058;2023-03-01T08:53:35;4.45;;;1.47;;
67090;SDS011;54007;55.818;49.058;2023-03-01T08:56:01;7.70;;;1.70;;
67090;SDS011;54007;55.818;49.058;2023-03-01T08:58:27;7.78;;;1.80;;
67090;SDS011;54007;55.818;49.058;2023-03-01T09:00:53;8.68;;;1.75;;
67090;SDS011;54007;55.818;49.058;2023-03-01T09:03:19;7.87;;;1.50;;
67090;SDS011;54007;55.818;49.058;2023-03-01T09:05:45;6.42;;;1.45;;
67090;SDS011;54007;55.818;49.058;2023-03-01T09:08:11;4.33;;;1.50;;
67090;SDS011;54007;55.818;49.058;2023-03-01T09:10:38;3.72;;;1.32;;
67090;SDS011;54007;55.818;49.058;2023-03-01T09:13:03;5.28;;;1.30;;
67090;SDS011;54007;55.818;49.058;2023-03-01T09:15:29;4.78;;;1.32;;
67090;SDS011;54007;55.818;49.058;2023-03-01T09:17:55;4.53;;;1.20;;
67090;SDS011;54007;55.818;49.058;2023-03-01T09:20:21;6.05;;;1.30;;
67090;SDS011;54007;55.818;49.058;2023-03-01T09:22:47;5.80;;;1.55;;
67090;SDS011;54007;55.818;49.058;2023-03-01T09:25:13;6.73;;;1.30;;
67090;SDS011;54007;55.818;49.058;2023-03-01T09:27:38;3.62;;;1.37;;
67090;SDS011;54007;55.818;49.058;2023-03-01T09:30:04;4.55;;;1.45;;
67090;SDS011;54007;55.818;49.058;2023-03-01T09:32:31;4.13;;;1.10;;
67090;SDS011;54007;55.818;49.058;2023-03-01T09:34:56;6.15;;;1.90;;
67090;SDS011;54007;55.818;49.058;2023-03-01T09:37:35;5.03;;;1.30;;
67090;SDS011;54007;55.818;49.058;2023-03-01T09:40:01;4.60;;;1.60;;
67090;SDS011;54007;55.818;49.058;2023-03-01T09:42:27;12.43;;;3.65;;
67090;SDS011;54007;55.818;49.058;2023-03-01T09:45:04;4.45;;;1.40;;
67090;SDS011;54007;55.818;49.058;2023-03-01T09:47:26;4.80;;;1.45;;
67090;SDS011;54007;55.818;49.058;2023-03-01T09:50:08;7.60;;;1.50;;
67090;SDS011;54007;55.818;49.058;2023-03-01T09:55:01;5.45;;;1.57;;
67090;SDS011;54007;55.818;49.058;2023-03-01T10:05:25;4.37;;;1.50;;
67090;SDS011;54007;55.818;49.058;2023-03-01T10:08:02;4.80;;;1.40;;
67090;SDS011;54007;55.818;49.058;2023-03-01T10:10:32;3.55;;;1.30;;
67090;SDS011;54007;55.818;49.058;2023-03-01T10:12:56;5.15;;;1.55;;
67090;SDS011;54007;55.818;49.058;2023-03-01T10:15:25;8.43;;;1.75;;
67090;SDS011;54007;55.818;49.058;2023-03-01T10:17:52;8.95;;;2.08;;
67090;SDS011;54007;55.818;49.058;2023-03-01T10:22:42;10.72;;;2.67;;
67090;SDS011;54007;55.818;49.058;2023-03-01T10:25:08;8.38;;;2.30;;
67090;SDS011;54007;55.818;49.058;2023-03-01T10:27:53;7.73;;;2.00;;
67090;SDS011;54007;55.818;49.058;2023-03-01T10:32:49;5.75;;;1.80;;
67090;SDS011;54007;55.818;49.058;2023-03-01T10:35:18;10.72;;;2.55;;
67090;SDS011;54007;55.818;49.058;2023-03-01T10:40:27;8.88;;;2.47;;
67090;SDS011;54007;55.818;49.058;2023-03-01T10:42:53;8.85;;;2.27;;
67090;SDS011;54007;55.818;49.058;2023-03-01T10:47:45;8.70;;;2.52;;
67090;SDS011;54007;55.818;49.058;2023-03-01T10:50:18;19.75;;;6.05;;
67090;SDS011;54007;55.818;49.058;2023-03-01T10:52:37;15.87;;;9.27;;
67090;SDS011;54007;55.818;49.058;2023-03-01T10:57:38;6.80;;;2.20;;
67090;SDS011;54007;55.818;49.058;2023-03-01T11:00:20;5.90;;;2.00;;
67090;SDS011;54007;55.818;49.058;2023-03-01T11:03:19;8.18;;;2.25;;
67090;SDS011;54007;55.818;49.058;2023-03-01T11:05:21;8.20;;;2.60;;
67090;SDS011;54007;55.818;49.058;2023-03-01T11:07:52;9.53;;;2.80;;
67090;SDS011;54007;55.818;49.058;2023-03-01T11:10:18;8.53;;;2.60;;
67090;SDS011;54007;55.818;49.058;2023-03-01T11:12:42;8.50;;;2.72;;
67090;SDS011;54007;55.818;49.058;2023-03-01T11:15:15;4.87;;;1.90;;
67090;SDS011;54007;55.818;49.058;2023-03-01T11:17:34;6.33;;;2.00;;
67090;SDS011;54007;55.818;49.058;2023-03-01T11:20:15;6.92;;;2.42;;
67090;SDS011;54007;55.818;49.058;2023-03-01T11:22:29;9.05;;;2.70;;
67090;SDS011;54007;55.818;49.058;2023-03-01T11:24:55;8.07;;;2.43;;
67090;SDS011;54007;55.818;49.058;2023-03-01T11:32:45;7.60;;;2.70;;
67090;SDS011;54007;55.818;49.058;2023-03-01T11:35:20;8.68;;;1.87;;
67090;SDS011;54007;55.818;49.058;2023-03-01T11:37:48;4.28;;;1.50;;
67090;SDS011;54007;55.818;49.058;2023-03-01T11:40:11;7.47;;;1.60;;
67090;SDS011;54007;55.818;49.058;2023-03-01T11:42:50;5.65;;;1.70;;
67090;SDS011;54007;55.818;49.058;2023-03-01T11:45:13;4.08;;;1.70;;
67090;SDS011;54007;55.818;49.058;2023-03-01T11:47:57;7.15;;;1.70;;
67090;SDS011;54007;55.818;49.058;2023-03-01T12:00:26;4.80;;;1.80;;
67090;SDS011;54007;55.818;49.058;2023-03-01T12:05:46;5.50;;;1.77;;
67090;SDS011;54007;55.818;49.058;2023-03-01T12:08:09;8.25;;;2.40;;
67090;SDS011;54007;55.818;49.058;2023-03-01T12:10:34;5.45;;;2.20;;
67090;SDS011;54007;55.818;49.058;2023-03-01T12:13:08;9.83;;;2.20;;
67090;SDS011;54007;55.818;49.058;2023-03-01T12:18:13;8.00;;;2.30;;
67090;SDS011;54007;55.818;49.058;2023-03-01T12:20:43;8.43;;;2.35;;
67090;SDS011;54007;55.818;49.058;2023-03-01T12:28:31;10.23;;;2.40;;
67090;SDS011;54007;55.818;49.058;2023-03-01T12:30:57;9.40;;;2.60;;
67090;SDS011;54007;55.818;49.058;2023-03-01T12:33:25;6.25;;;2.20;;
67090;SDS011;54007;55.818;49.058;2023-03-01T12:35:56;7.40;;;2.33;;
67090;SDS011;54007;55.818;49.058;2023-03-01T12:43:22;5.67;;;2.20;;
67090;SDS011;54007;55.818;49.058;2023-03-01T12:45:50;7.42;;;2.42;;
67090;SDS011;54007;55.818;49.058;2023-03-01T12:48:25;6.10;;;1.95;;
67090;SDS011;54007;55.818;49.058;2023-03-01T12:50:53;7.87;;;2.25;;
67090;SDS011;54007;55.818;49.058;2023-03-01T12:53:22;4.92;;;1.80;;
67090;SDS011;54007;55.818;49.058;2023-03-01T12:55:47;6.92;;;2.40;;
67090;SDS011;54007;55.818;49.058;2023-03-01T12:58:18;8.53;;;2.50;;
67090;SDS011;54007;55.818;49.058;2023-03-01T13:00:53;10.72;;;2.65;;
67090;SDS011;54007;55.818;49.058;2023-03-01T13:03:18;8.08;;;2.65;;
67090;SDS011;54007;55.818;49.058;2023-03-01T13:06:15;6.40;;;2.10;;
67090;SDS011;54007;55.818;49.058;2023-03-01T13:08:15;8.75;;;2.22;;
67090;SDS011;54007;55.818;49.058;2023-03-01T13:10:45;9.85;;;3.00;;
67090;SDS011;54007;55.818;49.058;2023-03-01T13:13:13;7.90;;;2.23;;
67090;SDS011;54007;55.818;49.058;2023-03-01T13:15:38;7.75;;;2.20;;
67090;SDS011;54007;55.818;49.058;2023-03-01T13:20:31;9.27;;;2.70;;
67090;SDS011;54007;55.818;49.058;2023-03-01T13:23:11;7.60;;;2.60;;
67090;SDS011;54007;55.818;49.058;2023-03-01T13:25:30;9.03;;;2.75;;
67090;SDS011;54007;55.818;49.058;2023-03-01T13:30:41;9.30;;;2.67;;
67090;SDS011;54007;55.818;49.058;2023-03-01T13:33:33;6.83;;;2.60;;
67090;SDS011;54007;55.818;49.058;2023-03-01T13:35:45;10.20;;;2.60;;
67090;SDS011;54007;55.818;49.058;2023-03-01T13:43:32;9.90;;;2.98;;
67090;SDS011;54007;55.818;49.058;2023-03-01T13:45:56;7.87;;;2.45;;
67090;SDS011;54007;55.818;49.058;2023-03-01T13:48:24;8.53;;;2.58;;
67090;SDS011;54007;55.818;49.058;2023-03-01T13:50:50;7.53;;;2.77;;
67090;SDS011;54007;55.818;49.058;2023-03-01T13:53:16;8.93;;;2.57;;
67090;SDS011;54007;55.818;49.058;2023-03-01T13:55:44;6.58;;;2.90;;
67090;SDS011;54007;55.818;49.058;2023-03-01T13:58:18;9.20;;;2.72;;
67090;SDS011;54007;55.818;49.058;2023-03-01T14:00:41;8.30;;;2.77;;
67090;SDS011;54007;55.818;49.058;2023-03-01T14:03:11;14.20;;;3.00;;
67090;SDS011;54007;55.818;49.058;2023-03-01T14:05:35;7.67;;;2.70;;
67090;SDS011;54007;55.818;49.058;2023-03-01T14:08:02;9.43;;;2.77;;
67090;SDS011;54007;55.818;49.058;2023-03-01T14:10:29;10.95;;;2.80;;
67090;SDS011;54007;55.818;49.058;2023-03-01T14:13:02;8.23;;;3.07;;
67090;SDS011;54007;55.818;49.058;2023-03-01T14:20:32;11.85;;;2.98;;
67090;SDS011;54007;55.818;49.058;2023-03-01T14:22:58;7.78;;;3.00;;
67090;SDS011;54007;55.818;49.058;2023-03-01T14:25:29;8.48;;;2.83;;
67090;SDS011;54007;55.818;49.058;2023-03-01T14:27:54;15.40;;;3.05;;
67090;SDS011;54007;55.818;49.058;2023-03-01T14:30:21;11.08;;;2.80;;
67090;SDS011;54007;55.818;49.058;2023-03-01T14:32:53;9.10;;;2.83;;
67090;SDS011;54007;55.818;49.058;2023-03-01T14:35:22;8.50;;;2.77;;
67090;SDS011;54007;55.818;49.058;2023-03-01T14:37:44;12.65;;;3.30;;
67090;SDS011;54007;55.818;49.058;2023-03-01T14:40:19;10.60;;;3.15;;
67090;SDS011;54007;55.818;49.058;2023-03-01T14:42:36;12.47;;;3.80;;
67090;SDS011;54007;55.818;49.058;2023-03-01T14:45:02;8.50;;;3.00;;
67090;SDS011;54007;55.818;49.058;2023-03-01T14:47:32;10.30;;;3.10;;
67090;SDS011;54007;55.818;49.058;2023-03-01T14:50:08;11.35;;;3.90;;
67090;SDS011;54007;55.818;49.058;2023-03-01T14:52:34;11.38;;;3.30;;
67090;SDS011;54007;55.818;49.058;2023-03-01T14:54:58;7.47;;;2.80;;
67090;SDS011;54007;55.818;49.058;2023-03-01T14:57:25;9.93;;;3.17;;
67090;SDS011;54007;55.818;49.058;2023-03-01T15:00:00;8.53;;;2.75;;
67090;SDS011;54007;55.818;49.058;2023-03-01T15:02:26;8.58;;;3.17;;
67090;SDS011;54007;55.818;49.058;2023-03-01T15:04:52;8.78;;;2.85;;
67090;SDS011;54007;55.818;49.058;2023-03-01T15:07:17;7.45;;;2.77;;
67090;SDS011;54007;55.818;49.058;2023-03-01T15:09:43;8.73;;;2.90;;
67090;SDS011;54007;55.818;49.058;2023-03-01T15:14:53;8.75;;;2.60;;
67090;SDS011;54007;55.818;49.058;2023-03-01T15:17:37;9.07;;;3.10;;
67090;SDS011;54007;55.818;49.058;2023-03-01T15:19:47;6.65;;;2.40;;
67090;SDS011;54007;55.818;49.058;2023-03-01T15:22:14;6.87;;;2.30;;
67090;SDS011;54007;55.818;49.058;2023-03-01T15:24:39;8.53;;;2.40;;
67090;SDS011;54007;55.818;49.058;2023-03-01T15:27:05;8.98;;;2.87;;
67090;SDS011;54007;55.818;49.058;2023-03-01T15:29:31;7.63;;;2.63;;
67090;SDS011;54007;55.818;49.058;2023-03-01T15:32:00;8.45;;;2.95;;
67090;SDS011;54007;55.818;49.058;2023-03-01T15:34:27;6.80;;;2.52;;
67090;SDS011;54007;55.818;49.058;2023-03-01T15:36:52;10.40;;;3.27;;
67090;SDS011;54007;55.818;49.058;2023-03-01T15:42:08;5.60;;;2.30;;
67090;SDS011;54007;55.818;49.058;2023-03-01T15:44:34;9.58;;;3.27;;
67090;SDS011;54007;55.818;49.058;2023-03-01T15:46:59;14.10;;;3.20;;
67090;SDS011;54007;55.818;49.058;2023-03-01T15:49:26;8.83;;;3.20;;
67090;SDS011;54007;55.818;49.058;2023-03-01T15:51:50;8.45;;;2.75;;
67090;SDS011;54007;55.818;49.058;2023-03-01T15:54:19;7.80;;;2.70;;